Time;durP1;ratioP1;P1;durP2;ratioP2;P2;SDS_P1;SDS_P2;PMS_P1;PMS_P2;Temp;Humidity;BMP_temperature;BMP_pressure;BME280_temperature;BME280_humidity;BME280_pressure;Samples;Min_cycle;Max_cycle;Signal;HPM_P1;HPM_P2
2023/09/20 00:01:03;;;;;;;3.13;1.40;;;15.90;99.90;;;;;;5081624;28;20214;-83
2023/09/20 00:03:31;;;;;;;4.40;1.70;;;15.90;99.90;;;;;;5081867;28;20707;-84
2023/09/20 00:05:59;;;;;;;3.90;1.60;;;16.00;99.90;;;;;;5086806;28;20225;-83
2023/09/20 00:08:26;;;;;;;2.33;1.20;;;16.00;99.90;;;;;;5085542;28;20222;-83
2023/09/20 00:10:52;;;;;;;6.20;1.70;;;16.00;99.90;;;;;;5089218;27;20832;-84
2023/09/20 00:13:19;;;;;;;3.23;1.43;;;16.10;99.90;;;;;;5087332;28;20848;-84
2023/09/20 00:15:47;;;;;;;4.53;1.60;;;16.10;99.90;;;;;;5087209;27;20305;-83
2023/09/20 00:18:14;;;;;;;3.70;1.53;;;16.10;99.90;;;;;;5087265;28;20313;-82
2023/09/20 00:20:41;;;;;;;3.77;1.47;;;16.10;99.90;;;;;;5110962;27;20836;-83
2023/09/20 00:23:09;;;;;;;2.57;1.37;;;16.20;99.90;;;;;;5093294;27;20218;-83
2023/09/20 00:25:36;;;;;;;7.27;1.53;;;16.20;99.90;;;;;;5080788;27;20305;-83
2023/09/20 00:28:03;;;;;;;4.63;1.50;;;16.20;99.90;;;;;;5086403;27;20225;-83
2023/09/20 00:30:30;;;;;;;4.23;1.40;;;16.30;99.90;;;;;;5088847;28;20887;-83
2023/09/20 00:33:01;;;;;;;3.60;1.43;;;16.20;99.90;;;;;;5089951;27;20225;-83
2023/09/20 00:35:28;;;;;;;5.60;1.43;;;16.30;99.90;;;;;;5091375;28;20297;-82
2023/09/20 00:37:55;;;;;;;4.73;1.47;;;16.30;99.90;;;;;;5082818;28;20246;-83
2023/09/20 00:40:23;;;;;;;4.37;1.20;;;16.30;99.90;;;;;;5083551;28;20218;-83
2023/09/20 00:42:51;;;;;;;3.97;1.57;;;16.40;99.90;;;;;;5109849;27;20221;-83
2023/09/20 00:45:19;;;;;;;3.17;1.63;;;16.40;99.90;;;;;;5090559;28;20242;-83
2023/09/20 00:47:51;;;;;;;2.27;1.33;;;16.40;99.90;;;;;;5105485;27;20269;-83
2023/09/20 00:50:20;;;;;;;4.57;2.33;;;16.40;99.90;;;;;;5089685;28;20761;-82
2023/09/20 00:52:51;;;;;;;4.27;1.53;;;16.40;99.90;;;;;;5084684;28;20596;-83
2023/09/20 00:55:21;;;;;;;6.40;1.70;;;16.40;99.90;;;;;;5080156;28;20660;-83
2023/09/20 00:57:51;;;;;;;6.70;1.63;;;16.50;99.90;;;;;;5089420;27;20226;-83
2023/09/20 01:00:21;;;;;;;3.60;1.30;;;16.50;99.90;;;;;;5086454;28;20246;-83
2023/09/20 01:02:51;;;;;;;3.37;1.50;;;16.50;99.90;;;;;;5082909;28;20284;-82
2023/09/20 01:05:21;;;;;;;3.00;1.53;;;16.50;99.90;;;;;;5088247;28;20221;-83
2023/09/20 01:07:50;;;;;;;4.60;1.60;;;16.50;99.90;;;;;;5106205;27;20214;-82
2023/09/20 01:10:22;;;;;;;4.07;1.63;;;16.50;99.90;;;;;;5088880;28;20235;-83
2023/09/20 01:12:51;;;;;;;5.07;1.43;;;16.50;99.90;;;;;;5095729;27;20449;-83
2023/09/20 01:15:20;;;;;;;6.33;2.00;;;16.50;99.90;;;;;;5111582;27;20221;-82
2023/09/20 01:17:48;;;;;;;5.73;1.60;;;16.40;99.90;;;;;;5099521;27;20222;-83
2023/09/20 01:20:17;;;;;;;3.33;1.40;;;16.50;99.90;;;;;;5089292;28;20321;-82
2023/09/20 01:22:46;;;;;;;3.57;1.50;;;16.40;99.90;;;;;;5088326;27;20313;-82
2023/09/20 01:25:22;;;;;;;3.43;1.47;;;16.40;99.90;;;;;;5087729;28;20659;-83
2023/09/20 01:27:49;;;;;;;3.87;1.33;;;16.40;99.90;;;;;;5081415;27;20335;-83
2023/09/20 01:30:17;;;;;;;4.13;1.50;;;16.40;99.90;;;;;;5085913;28;20226;-83
2023/09/20 01:32:44;;;;;;;4.53;1.60;;;16.40;99.90;;;;;;5088988;27;20238;-84
2023/09/20 01:35:10;;;;;;;4.93;1.70;;;16.30;99.90;;;;;;5077087;28;20256;-84
2023/09/20 01:37:38;;;;;;;3.57;1.40;;;16.40;99.90;;;;;;5102825;28;20226;-83
2023/09/20 01:40:15;;;;;;;3.63;1.50;;;16.40;99.90;;;;;;5084656;28;20232;-84
2023/09/20 01:42:43;;;;;;;5.77;1.70;;;16.40;99.90;;;;;;5086736;28;20230;-83
2023/09/20 01:45:16;;;;;;;6.10;1.83;;;16.50;99.90;;;;;;5085958;28;20226;-82
2023/09/20 01:47:47;;;;;;;4.63;1.57;;;16.50;99.90;;;;;;5093099;28;20221;-82
2023/09/20 01:50:19;;;;;;;4.17;1.60;;;16.50;99.90;;;;;;5113679;28;20248;-82
2023/09/20 01:52:47;;;;;;;4.43;1.57;;;16.50;99.90;;;;;;5114723;27;20257;-82
2023/09/20 01:55:17;;;;;;;9.73;2.30;;;16.60;99.90;;;;;;5091767;28;20228;-82
2023/09/20 01:57:45;;;;;;;5.53;1.87;;;16.60;99.90;;;;;;5088330;28;20800;-81
2023/09/20 02:00:16;;;;;;;5.30;1.57;;;16.60;99.90;;;;;;5090441;28;20290;-81
2023/09/20 02:02:44;;;;;;;4.67;1.70;;;16.60;99.90;;;;;;5087697;28;20533;-83
2023/09/20 02:05:14;;;;;;;4.60;1.80;;;16.60;99.90;;;;;;5085878;28;20601;-82
2023/09/20 02:07:41;;;;;;;6.70;1.60;;;16.60;99.90;;;;;;5085716;28;20221;-82
2023/09/20 02:10:09;;;;;;;3.17;1.60;;;16.60;99.90;;;;;;5092091;27;20233;-82
2023/09/20 02:12:37;;;;;;;5.43;1.80;;;16.60;99.90;;;;;;5092256;28;20229;-82
2023/09/20 02:15:07;;;;;;;3.17;1.57;;;16.70;99.90;;;;;;5087802;28;20508;-82
2023/09/20 02:17:35;;;;;;;5.90;2.00;;;16.70;99.90;;;;;;5089416;28;20229;-81
2023/09/20 02:20:08;;;;;;;6.53;1.77;;;16.70;99.90;;;;;;5088427;28;20648;-82
2023/09/20 02:22:36;;;;;;;6.83;1.60;;;16.70;99.90;;;;;;5089681;28;20268;-82
2023/09/20 02:25:05;;;;;;;3.63;2.07;;;16.70;99.90;;;;;;5091879;28;20217;-82
2023/09/20 02:27:33;;;;;;;5.03;1.87;;;16.70;99.90;;;;;;5084468;28;20301;-82
2023/09/20 02:30:03;;;;;;;5.70;1.60;;;16.70;99.90;;;;;;5111339;28;20742;-82
2023/09/20 02:32:30;;;;;;;6.03;1.80;;;16.70;99.90;;;;;;5090813;28;20226;-83
2023/09/20 02:34:59;;;;;;;6.03;1.60;;;16.80;99.90;;;;;;5100100;28;20216;-84
2023/09/20 02:37:26;;;;;;;6.63;1.60;;;16.70;99.90;;;;;;5101717;27;20228;-83
2023/09/20 02:39:53;;;;;;;5.73;1.73;;;16.70;99.90;;;;;;5088123;28;20694;-84
2023/09/20 02:42:22;;;;;;;8.30;2.10;;;16.80;99.90;;;;;;5086993;28;20241;-84
2023/09/20 02:44:51;;;;;;;3.77;1.50;;;16.80;99.90;;;;;;5091329;28;20423;-84
2023/09/20 02:47:20;;;;;;;4.13;1.77;;;16.80;99.90;;;;;;5103952;28;20991;-83
2023/09/20 02:49:48;;;;;;;5.57;1.63;;;16.70;99.90;;;;;;5086010;28;20275;-83
2023/09/20 02:52:17;;;;;;;4.97;1.80;;;16.80;99.90;;;;;;5086153;28;20226;-83
2023/09/20 02:54:44;;;;;;;4.77;1.80;;;16.70;99.90;;;;;;5086741;28;20278;-82
2023/09/20 02:57:11;;;;;;;4.83;1.60;;;16.80;99.90;;;;;;5094999;28;20283;-83
2023/09/20 02:59:39;;;;;;;4.40;2.00;;;16.70;99.90;;;;;;5086699;28;20779;-83
2023/09/20 03:02:06;;;;;;;5.17;1.50;;;16.80;99.90;;;;;;5108365;28;20505;-82
2023/09/20 03:04:37;;;;;;;4.07;1.80;;;16.70;99.90;;;;;;5092403;28;20290;-82
2023/09/20 03:07:06;;;;;;;3.87;1.97;;;16.70;99.90;;;;;;5088782;28;20388;-82
2023/09/20 03:09:36;;;;;;;6.77;2.23;;;16.70;99.90;;;;;;5089843;28;20640;-82
2023/09/20 03:12:05;;;;;;;4.17;1.70;;;16.70;99.90;;;;;;5093138;28;20306;-83
2023/09/20 03:14:34;;;;;;;3.50;1.60;;;16.70;99.90;;;;;;5094061;28;20721;-82
2023/09/20 03:17:02;;;;;;;2.90;1.60;;;16.60;99.90;;;;;;5093933;28;20224;-83
2023/09/20 03:19:31;;;;;;;3.17;1.50;;;16.60;99.90;;;;;;5087266;28;20226;-83
2023/09/20 03:22:01;;;;;;;5.87;2.20;;;16.70;99.90;;;;;;5089494;28;20230;-85
2023/09/20 03:24:29;;;;;;;4.73;1.87;;;16.60;99.90;;;;;;5081262;28;20214;-84
2023/09/20 03:26:57;;;;;;;2.80;1.50;;;16.60;99.90;;;;;;5086720;27;20217;-83
2023/09/20 03:29:26;;;;;;;4.87;1.80;;;16.70;99.90;;;;;;5094396;27;20253;-83
2023/09/20 03:31:53;;;;;;;6.13;2.40;;;16.70;99.90;;;;;;5093449;28;20235;-84
2023/09/20 03:34:21;;;;;;;5.20;2.57;;;16.70;99.90;;;;;;5091014;27;20305;-83
2023/09/20 03:36:50;;;;;;;3.23;1.80;;;16.70;99.90;;;;;;5090312;27;20260;-84
2023/09/20 03:39:24;;;;;;;7.37;1.93;;;16.70;99.90;;;;;;5091650;27;20221;-83
2023/09/20 03:41:52;;;;;;;4.00;1.80;;;16.70;99.90;;;;;;5089647;28;20247;-84
2023/09/20 03:44:19;;;;;;;3.77;1.67;;;16.70;99.90;;;;;;5086662;28;20218;-84
2023/09/20 03:46:47;;;;;;;5.43;2.37;;;16.70;99.90;;;;;;5087877;27;20232;-84
2023/09/20 03:49:16;;;;;;;4.63;1.50;;;16.70;99.90;;;;;;5086224;28;20218;-84
2023/09/20 03:51:43;;;;;;;4.47;1.90;;;16.70;99.90;;;;;;5086214;28;20317;-83
2023/09/20 03:54:10;;;;;;;5.43;2.13;;;16.70;99.90;;;;;;5088708;27;20229;-83
2023/09/20 03:56:41;;;;;;;8.63;2.23;;;16.80;99.90;;;;;;5091891;27;20225;-82
2023/09/20 03:59:10;;;;;;;7.93;2.07;;;16.70;99.90;;;;;;5093469;27;20248;-82
2023/09/20 04:01:37;;;;;;;5.90;1.67;;;16.80;99.90;;;;;;5089339;28;20233;-83
2023/09/20 04:04:05;;;;;;;7.43;2.40;;;16.80;99.90;;;;;;5095374;27;20235;-84
2023/09/20 04:06:34;;;;;;;2.97;1.53;;;16.80;99.90;;;;;;5092393;28;20234;-84
2023/09/20 04:09:09;;;;;;;4.03;1.77;;;16.80;99.90;;;;;;5091738;27;20225;-83
2023/09/20 04:11:40;;;;;;;3.77;1.97;;;16.90;99.90;;;;;;5083493;28;20615;-83
2023/09/20 04:14:08;;;;;;;4.83;1.63;;;16.90;99.90;;;;;;5076909;28;20297;-84
2023/09/20 04:16:36;;;;;;;6.50;2.10;;;16.90;99.90;;;;;;5115202;27;20244;-82
2023/09/20 04:19:04;;;;;;;6.20;2.33;;;16.80;99.90;;;;;;5090897;28;20226;-83
2023/09/20 04:21:31;;;;;;;5.27;1.80;;;16.80;99.90;;;;;;5084650;27;20281;-82
2023/09/20 04:23:59;;;;;;;3.25;1.75;;;16.90;99.90;;;;;;5109560;27;20755;-82
2023/09/20 04:26:26;;;;;;;6.38;1.83;;;16.90;99.90;;;;;;5095753;27;20621;-82
2023/09/20 04:28:55;;;;;;;5.50;2.20;;;16.80;99.90;;;;;;5091460;27;20267;-79
2023/09/20 04:31:23;;;;;;;7.55;2.10;;;16.80;99.90;;;;;;5094019;27;20210;-82
2023/09/20 04:33:52;;;;;;;5.65;2.20;;;16.90;99.90;;;;;;5092698;27;20214;-80
2023/09/20 04:36:19;;;;;;;8.60;2.40;;;16.80;99.90;;;;;;5087911;27;20229;-81
2023/09/20 04:38:46;;;;;;;7.03;2.25;;;16.80;99.90;;;;;;5109218;27;20628;-81
2023/09/20 04:41:14;;;;;;;7.93;2.60;;;16.80;99.90;;;;;;5088241;28;20229;-81
2023/09/20 04:43:41;;;;;;;7.18;2.00;;;16.80;99.90;;;;;;5080910;27;20255;-82
2023/09/20 04:46:10;;;;;;;4.28;2.10;;;16.80;99.90;;;;;;5114237;27;20715;-82
2023/09/20 04:48:39;;;;;;;5.75;1.95;;;16.80;99.90;;;;;;5096810;27;20778;-82
2023/09/20 04:51:06;;;;;;;6.65;2.10;;;16.80;99.90;;;;;;5083158;28;20221;-83
2023/09/20 04:53:34;;;;;;;4.27;2.00;;;16.80;99.90;;;;;;5084226;28;20959;-83
2023/09/20 04:56:02;;;;;;;4.43;1.80;;;16.90;99.90;;;;;;5087692;27;20221;-84
2023/09/20 04:58:30;;;;;;;5.40;2.10;;;16.90;99.90;;;;;;5089761;27;20225;-83
2023/09/20 05:00:57;;;;;;;3.77;2.20;;;16.80;99.90;;;;;;5088584;28;20226;-83
2023/09/20 05:03:26;;;;;;;4.17;2.13;;;16.90;99.90;;;;;;5092654;28;20283;-84
2023/09/20 05:05:53;;;;;;;5.10;2.10;;;16.80;99.90;;;;;;5088107;27;20470;-86
2023/09/20 05:08:20;;;;;;;4.87;1.93;;;16.80;99.90;;;;;;5083795;28;20219;-85
2023/09/20 05:10:47;;;;;;;5.50;1.70;;;16.80;99.90;;;;;;5087289;27;20274;-83
2023/09/20 05:13:16;;;;;;;4.60;2.20;;;16.80;99.90;;;;;;5093766;28;20321;-81
2023/09/20 05:15:43;;;;;;;4.40;2.28;;;16.80;99.90;;;;;;5095698;27;20636;-82
2023/09/20 05:18:11;;;;;;;6.47;2.37;;;16.80;99.90;;;;;;5091443;28;20293;-85
2023/09/20 05:20:40;;;;;;;4.80;2.08;;;16.80;99.90;;;;;;5088802;27;20230;-83
2023/09/20 05:23:08;;;;;;;5.72;2.17;;;16.80;99.90;;;;;;5086439;28;20228;-81
2023/09/20 05:25:35;;;;;;;5.43;2.13;;;16.80;99.90;;;;;;5104121;27;20900;-84
2023/09/20 05:28:02;;;;;;;4.70;2.00;;;16.80;99.90;;;;;;5109038;27;20274;-82
2023/09/20 05:30:30;;;;;;;5.78;1.92;;;16.80;99.90;;;;;;5098905;28;20225;-80
2023/09/20 05:32:58;;;;;;;5.27;2.50;;;16.80;99.90;;;;;;5074567;28;20660;-79
2023/09/20 05:35:25;;;;;;;5.85;2.25;;;16.90;99.90;;;;;;5082907;28;20225;-79
2023/09/20 05:37:54;;;;;;;6.43;2.27;;;16.90;99.90;;;;;;5103105;27;20851;-79
2023/09/20 05:40:21;;;;;;;5.93;2.20;;;16.90;99.90;;;;;;5099139;27;20222;-80
2023/09/20 05:42:51;;;;;;;10.23;2.37;;;16.90;99.90;;;;;;5094988;27;20249;-80
2023/09/20 05:45:19;;;;;;;9.07;2.17;;;16.90;99.90;;;;;;5112082;27;20901;-79
2023/09/20 05:47:49;;;;;;;4.67;2.00;;;16.90;99.90;;;;;;5094161;27;20786;-80
2023/09/20 05:50:16;;;;;;;5.87;2.33;;;16.90;99.90;;;;;;5111950;27;20262;-80
2023/09/20 05:52:43;;;;;;;7.40;2.10;;;16.90;99.90;;;;;;5095070;27;20229;-80
2023/09/20 05:55:14;;;;;;;4.73;1.80;;;16.90;99.90;;;;;;5108980;27;20217;-79
2023/09/20 05:57:41;;;;;;;4.90;2.10;;;16.90;99.90;;;;;;5092257;28;20221;-80
2023/09/20 06:00:12;;;;;;;5.77;2.33;;;16.80;99.90;;;;;;5081434;28;20226;-79
2023/09/20 06:02:41;;;;;;;5.10;2.10;;;16.90;99.90;;;;;;5077786;27;20403;-82
2023/09/20 06:05:09;;;;;;;5.23;2.00;;;16.80;99.90;;;;;;5105781;27;20317;-80
2023/09/20 06:07:36;;;;;;;4.13;1.97;;;16.90;99.90;;;;;;5089487;27;20232;-80
2023/09/20 06:10:04;;;;;;;6.77;2.40;;;16.90;99.90;;;;;;5088941;27;20721;-79
2023/09/20 06:12:32;;;;;;;5.57;2.00;;;16.90;99.90;;;;;;5108318;27;20229;-80
2023/09/20 06:14:59;;;;;;;5.70;1.90;;;16.90;99.90;;;;;;5082495;27;20238;-79
2023/09/20 06:17:29;;;;;;;8.73;2.40;;;16.90;99.90;;;;;;5115160;27;20239;-80
2023/09/20 06:19:56;;;;;;;5.97;1.60;;;17.00;99.90;;;;;;5090214;28;20282;-80
2023/09/20 06:22:23;;;;;;;6.53;2.00;;;17.00;99.90;;;;;;5079757;28;20752;-80
2023/09/20 06:24:50;;;;;;;5.17;2.10;;;17.10;99.90;;;;;;5089853;28;20218;-80
2023/09/20 06:27:17;;;;;;;8.27;2.03;;;17.10;99.90;;;;;;5099395;28;20270;-80
2023/09/20 06:29:45;;;;;;;3.70;2.17;;;17.20;99.90;;;;;;5105216;28;20222;-80
2023/09/20 06:32:15;;;;;;;6.53;2.13;;;17.30;99.90;;;;;;5086410;28;20226;-80
2023/09/20 06:34:42;;;;;;;4.07;1.80;;;17.30;99.90;;;;;;5104792;28;20210;-79
2023/09/20 06:37:09;;;;;;;4.67;2.30;;;17.40;99.90;;;;;;5085593;28;20326;-79
2023/09/20 06:39:36;;;;;;;3.70;2.00;;;17.50;99.90;;;;;;5106109;28;20730;-80
2023/09/20 06:42:04;;;;;;;6.70;1.90;;;17.50;99.90;;;;;;5103954;28;20312;-80
2023/09/20 06:44:35;;;;;;;4.87;1.77;;;17.60;99.90;;;;;;5099202;28;20688;-80
2023/09/20 06:47:04;;;;;;;3.75;1.70;;;17.70;99.90;;;;;;5083566;28;20268;-80
2023/09/20 06:49:31;;;;;;;5.68;1.90;;;17.70;99.90;;;;;;5086596;28;20217;-79
2023/09/20 06:52:01;;;;;;;5.00;1.90;;;17.70;99.90;;;;;;5100292;28;20771;-79
2023/09/20 06:54:28;;;;;;;3.55;1.77;;;17.70;99.90;;;;;;5080191;28;20228;-79
2023/09/20 06:56:57;;;;;;;6.00;2.10;;;17.70;99.90;;;;;;5102376;28;20920;-81
2023/09/20 06:59:24;;;;;;;10.48;2.13;;;17.70;99.90;;;;;;5102773;28;20222;-79
2023/09/20 07:01:53;;;;;;;6.82;2.00;;;17.70;99.90;;;;;;5105251;27;20936;-79
2023/09/20 07:04:21;;;;;;;6.35;1.80;;;17.70;99.90;;;;;;5088065;28;20279;-79
2023/09/20 07:06:48;;;;;;;4.55;1.98;;;17.70;99.90;;;;;;5087357;27;20218;-79
2023/09/20 07:09:15;;;;;;;5.10;2.03;;;17.70;99.90;;;;;;5098004;28;20226;-79
2023/09/20 07:11:42;;;;;;;5.27;2.00;;;17.70;99.90;;;;;;5110268;27;20221;-79
2023/09/20 07:14:11;;;;;;;4.67;2.10;;;17.70;99.90;;;;;;5107364;27;20241;-79
2023/09/20 07:16:39;;;;;;;4.53;2.33;;;17.80;99.90;;;;;;5107364;27;20222;-79
2023/09/20 07:19:06;;;;;;;4.35;1.95;;;17.70;99.90;;;;;;5108250;27;20252;-79
2023/09/20 07:21:37;;;;;;;8.18;2.15;;;17.70;99.90;;;;;;5087979;27;20305;-79
2023/09/20 07:24:06;;;;;;;5.40;2.37;;;17.70;99.90;;;;;;5101634;27;20222;-79
2023/09/20 07:26:33;;;;;;;3.53;2.07;;;17.80;99.90;;;;;;5105804;27;20246;-79
2023/09/20 07:29:00;;;;;;;4.20;1.90;;;17.80;99.90;;;;;;5105325;27;20218;-79
2023/09/20 07:31:27;;;;;;;5.43;2.10;;;17.80;99.90;;;;;;5086755;27;20226;-79
2023/09/20 07:33:56;;;;;;;6.95;2.35;;;17.80;99.90;;;;;;5091366;27;20214;-79
2023/09/20 07:36:23;;;;;;;5.93;2.33;;;17.70;99.90;;;;;;5085608;28;20225;-79
2023/09/20 07:38:51;;;;;;;9.00;2.40;;;17.80;99.90;;;;;;5104012;27;20218;-79
2023/09/20 07:41:18;;;;;;;4.43;2.28;;;17.80;99.90;;;;;;5095048;27;20238;-79
2023/09/20 07:43:47;;;;;;;7.97;2.23;;;17.90;99.90;;;;;;5104159;27;20582;-79
2023/09/20 07:46:15;;;;;;;4.03;2.00;;;18.00;99.90;;;;;;5104362;27;20301;-79
2023/09/20 07:48:47;;;;;;;4.90;2.08;;;18.10;99.90;;;;;;5088784;27;20702;-79
2023/09/20 07:51:14;;;;;;;7.72;2.30;;;18.10;99.90;;;;;;5105468;27;20288;-79
2023/09/20 07:53:41;;;;;;;3.58;2.10;;;18.20;99.90;;;;;;5090589;27;20295;-79
2023/09/20 07:56:11;;;;;;;6.95;2.30;;;18.20;99.90;;;;;;5086313;27;20221;-79
2023/09/20 07:58:40;;;;;;;5.45;2.00;;;18.30;99.90;;;;;;5100285;27;20223;-80
2023/09/20 08:01:10;;;;;;;5.53;2.40;;;18.30;99.90;;;;;;5107384;27;20777;-80
2023/09/20 08:03:38;;;;;;;5.00;2.08;;;18.40;99.90;;;;;;5088886;28;20236;-80
2023/09/20 08:06:08;;;;;;;7.32;2.17;;;18.50;99.90;;;;;;5106257;27;20264;-80
2023/09/20 08:08:36;;;;;;;2.75;2.03;;;18.60;99.90;;;;;;5082709;28;20279;-80
2023/09/20 08:11:03;;;;;;;4.75;2.20;;;18.70;99.90;;;;;;5091361;28;20274;-80
2023/09/20 08:13:31;;;;;;;4.10;2.00;;;18.80;99.90;;;;;;5108709;27;20342;-79
2023/09/20 08:15:58;;;;;;;6.25;2.35;;;18.90;99.90;;;;;;5104451;27;20217;-79
2023/09/20 08:21:09;;;;;;;6.25;2.20;;;19.10;99.90;;;;;;5101531;27;20226;-79
2023/09/20 09:02:13;;;;;;;4.10;1.75;;;23.60;99.00;;;;;;5095003;27;20222;-79
2023/09/20 09:04:42;;;;;;;3.85;1.77;;;23.60;98.30;;;;;;5096382;27;20225;-79
2023/09/20 09:07:09;;;;;;;3.35;1.73;;;23.80;99.10;;;;;;5111769;27;20213;-79
2023/09/20 09:09:36;;;;;;;5.78;1.75;;;24.00;98.80;;;;;;5106125;27;20225;-79
2023/09/20 09:12:02;;;;;;;4.93;1.95;;;24.00;97.30;;;;;;5088695;27;20228;-79
2023/09/20 09:14:31;;;;;;;2.35;1.52;;;24.20;98.20;;;;;;5086775;28;20236;-79
2023/09/20 09:17:02;;;;;;;4.63;1.85;;;24.40;97.60;;;;;;5112127;27;20216;-80
2023/09/20 09:19:30;;;;;;;2.80;1.40;;;24.50;97.30;;;;;;5111558;27;20302;-80
2023/09/20 09:21:58;;;;;;;3.35;1.60;;;24.60;97.00;;;;;;5107580;27;20300;-79
2023/09/20 09:24:24;;;;;;;2.97;1.33;;;24.70;96.50;;;;;;5105250;27;20714;-80
2023/09/20 09:27:04;;;;;;;4.18;1.83;;;24.60;96.40;;;;;;5112850;22;20228;-91
2023/09/20 09:29:31;;;;;;;3.90;1.60;;;24.40;95.40;;;;;;5055374;28;20222;-93
2023/09/20 09:32:00;;;;;;;3.20;1.48;;;24.10;95.70;;;;;;5040774;28;20295;-93
2023/09/20 09:34:28;;;;;;;4.07;1.88;;;23.80;96.10;;;;;;5048060;28;20263;-93
2023/09/20 09:36:56;;;;;;;3.10;1.60;;;23.40;96.00;;;;;;5038472;28;20224;-93
2023/09/20 09:39:24;;;;;;;4.55;1.63;;;23.10;96.90;;;;;;5042734;28;20243;-95
2023/09/20 09:41:51;;;;;;;3.03;1.42;;;23.00;97.50;;;;;;5045533;28;20302;-93
2023/09/20 09:44:46;;;;;;;3.42;1.67;;;22.80;97.90;;;;;;5048129;28;20334;-92
2023/09/20 09:47:14;;;;;;;4.72;1.95;;;22.80;98.30;;;;;;5022544;28;20314;-93
2023/09/20 09:49:42;;;;;;;3.13;1.60;;;22.70;97.80;;;;;;5025592;28;20215;-93
2023/09/20 09:52:33;;;;;;;3.25;1.45;;;22.70;98.40;;;;;;5020427;28;20224;-93
2023/09/20 09:55:00;;;;;;;4.65;1.73;;;22.70;98.40;;;;;;5037489;28;20262;-93
2023/09/20 10:01:15;;;;;;;4.70;1.63;;;22.80;98.50;;;;;;5027855;28;20886;-93
2023/09/20 10:03:46;;;;;;;4.68;2.05;;;22.90;98.00;;;;;;4982502;28;20221;-93
2023/09/20 10:06:59;;;;;;;;;;;;;;;;;;;;;
2023/09/20 10:09:40;;;;;;;3.40;1.52;;;22.80;98.30;;;;;;5015834;28;20235;-93
2023/09/20 10:16:28;;;;;;;4.35;1.52;;;22.80;98.50;;;;;;4989935;28;20308;-93
2023/09/20 10:18:58;;;;;;;3.95;1.80;;;22.70;98.60;;;;;;4956458;28;20241;-93
2023/09/20 10:21:31;;;;;;;6.15;1.90;;;22.60;98.60;;;;;;5027964;28;20258;-93
2023/09/20 10:23:59;;;;;;;3.50;1.60;;;22.40;98.30;;;;;;5019873;28;20220;-92
2023/09/20 10:27:11;;;;;;;4.32;1.90;;;22.30;98.80;;;;;;5005953;28;20244;-93
2023/09/20 10:30:02;;;;;;;5.82;2.10;;;22.30;98.80;;;;;;5010239;28;20219;-93
2023/09/20 10:32:53;;;;;;;4.22;1.50;;;22.20;98.90;;;;;;5030622;28;20310;-94
2023/09/20 10:35:39;;;;;;;4.60;1.70;;;22.20;99.10;;;;;;5043011;28;20211;-93
2023/09/20 10:38:23;;;;;;;5.20;1.65;;;22.30;99.30;;;;;;5027469;28;20241;-92
2023/09/20 10:41:10;;;;;;;4.03;2.00;;;22.40;99.50;;;;;;5020054;28;20222;-93
2023/09/20 10:44:02;;;;;;;4.88;1.67;;;22.60;99.20;;;;;;5030140;28;20300;-93
2023/09/20 10:46:36;;;;;;;4.60;1.65;;;22.80;98.90;;;;;;5013496;28;20221;-92
2023/09/20 10:49:17;;;;;;;5.68;2.40;;;22.90;98.70;;;;;;5024020;28;20558;-94
2023/09/20 10:55:58;;;;;;;2.80;1.80;;;23.20;98.00;;;;;;5054413;28;20226;-94
2023/09/20 10:59:09;;;;;;;3.65;1.80;;;23.40;98.20;;;;;;5031409;28;20831;-92
2023/09/20 11:02:17;;;;;;;4.13;1.98;;;23.50;97.90;;;;;;5035404;28;20219;-91
2023/09/20 11:05:05;;;;;;;4.25;2.08;;;23.70;97.80;;;;;;5050953;28;20313;-91
2023/09/20 11:07:32;;;;;;;6.72;2.17;;;23.50;97.10;;;;;;5037931;28;20969;-91
2023/09/20 11:10:01;;;;;;;7.32;2.15;;;23.50;97.40;;;;;;5042263;28;20231;-91
2023/09/20 11:12:42;;;;;;;6.65;2.35;;;23.50;97.40;;;;;;5049383;28;20287;-91
2023/09/20 11:15:15;;;;;;;4.57;2.28;;;23.50;97.20;;;;;;5044233;28;20326;-92
2023/09/20 11:18:15;;;;;;;4.25;2.10;;;23.50;97.10;;;;;;5042254;28;20220;-91
2023/09/20 11:21:09;;;;;;;4.78;2.17;;;23.70;96.80;;;;;;4958615;28;20222;-91
2023/09/20 11:23:39;;;;;;;5.30;2.17;;;23.90;97.50;;;;;;5023086;28;20236;-92
2023/09/20 11:26:08;;;;;;;6.00;2.67;;;24.10;97.30;;;;;;5043624;28;20265;-91
2023/09/20 11:28:37;;;;;;;3.67;2.38;;;24.30;97.20;;;;;;5047377;28;20245;-91
2023/09/20 11:31:04;;;;;;;5.20;2.45;;;24.60;97.40;;;;;;5050537;28;20223;-92
2023/09/20 11:34:13;;;;;;;4.40;2.22;;;24.80;96.80;;;;;;5028195;28;20219;-92
2023/09/20 11:36:53;;;;;;;5.50;2.08;;;25.00;96.00;;;;;;5032319;28;20228;-91
2023/09/20 11:39:28;;;;;;;5.45;2.30;;;25.10;95.20;;;;;;5033572;28;20235;-92
2023/09/20 11:42:49;;;;;;;5.03;2.60;;;25.10;95.40;;;;;;5039131;28;20227;-92
2023/09/20 11:45:53;;;;;;;4.45;2.38;;;25.00;95.60;;;;;;5056769;28;20265;-92
2023/09/20 11:48:34;;;;;;;4.43;2.42;;;24.80;95.50;;;;;;5043177;28;20353;-90
2023/09/20 11:51:26;;;;;;;3.53;1.98;;;24.70;95.50;;;;;;5065876;28;20228;-92
2023/09/20 11:53:57;;;;;;;4.15;1.88;;;24.80;95.10;;;;;;5043950;28;20208;-92
2023/09/20 11:56:25;;;;;;;4.47;2.30;;;24.70;95.50;;;;;;5067937;28;20227;-92
2023/09/20 11:58:53;;;;;;;5.25;2.20;;;24.80;96.00;;;;;;5048721;28;20323;-92
2023/09/20 12:01:24;;;;;;;3.65;1.75;;;24.80;95.20;;;;;;5043652;28;20220;-92
2023/09/20 12:03:54;;;;;;;5.07;2.38;;;24.80;95.00;;;;;;5044102;28;20223;-93
2023/09/20 12:06:21;;;;;;;5.10;2.80;;;24.80;95.40;;;;;;5045039;28;20216;-94
2023/09/20 12:08:48;;;;;;;4.38;2.08;;;24.80;95.40;;;;;;5047174;28;20252;-92
2023/09/20 12:11:15;;;;;;;4.72;2.42;;;24.80;95.30;;;;;;5047261;28;20697;-93
2023/09/20 12:13:43;;;;;;;7.68;2.33;;;24.80;95.80;;;;;;5070310;28;20639;-93
2023/09/20 12:16:11;;;;;;;3.70;1.80;;;24.70;95.30;;;;;;5067229;28;20215;-94
2023/09/20 12:18:38;;;;;;;4.93;2.15;;;24.70;95.60;;;;;;5052192;28;20227;-92
2023/09/20 12:21:08;;;;;;;4.80;2.25;;;24.90;95.50;;;;;;5049901;28;20327;-93
2023/09/20 12:23:38;;;;;;;3.65;2.03;;;24.80;94.70;;;;;;5054619;28;20253;-93
2023/09/20 12:26:06;;;;;;;3.38;2.03;;;24.80;94.80;;;;;;5053015;28;20283;-92
2023/09/20 12:28:33;;;;;;;3.80;2.00;;;24.80;95.10;;;;;;5073122;28;20228;-93
2023/09/20 12:31:00;;;;;;;6.57;1.90;;;24.90;95.40;;;;;;5052770;28;20216;-93
2023/09/20 12:33:28;;;;;;;4.45;2.13;;;24.80;94.60;;;;;;5054438;28;20346;-93
2023/09/20 12:35:55;;;;;;;5.75;2.60;;;24.80;94.50;;;;;;5046338;28;20271;-92
2023/09/20 12:38:24;;;;;;;3.63;2.20;;;24.90;93.90;;;;;;5051591;28;20219;-92
2023/09/20 12:40:52;;;;;;;5.32;2.35;;;24.80;94.00;;;;;;5051419;28;20253;-92
2023/09/20 12:43:18;;;;;;;4.57;2.10;;;24.90;94.80;;;;;;5053472;28;20238;-92
2023/09/20 12:45:46;;;;;;;8.27;2.30;;;25.00;94.60;;;;;;5054195;28;20752;-92
2023/09/20 12:48:13;;;;;;;3.95;2.28;;;25.10;94.00;;;;;;5054379;28;20266;-92
2023/09/20 12:50:41;;;;;;;4.68;1.80;;;25.00;93.00;;;;;;5056916;28;20228;-92
2023/09/20 12:53:09;;;;;;;4.75;2.03;;;25.10;93.40;;;;;;5053791;28;20199;-93
2023/09/20 12:55:39;;;;;;;5.18;2.30;;;25.10;93.70;;;;;;5056514;28;20265;-94
2023/09/20 12:58:07;;;;;;;4.53;2.38;;;25.10;93.80;;;;;;5072650;28;20219;-93
2023/09/20 13:00:34;;;;;;;3.78;2.40;;;25.20;94.00;;;;;;5057197;28;20219;-94
2023/09/20 13:03:01;;;;;;;4.15;2.92;;;25.30;93.70;;;;;;5052895;28;20233;-93
2023/09/20 13:05:28;;;;;;;4.53;2.53;;;25.30;93.50;;;;;;5054932;28;20227;-93
2023/09/20 13:07:56;;;;;;;3.17;1.88;;;25.40;93.20;;;;;;5055328;28;20223;-92
2023/09/20 13:10:23;;;;;;;3.50;2.20;;;25.30;92.40;;;;;;5055664;28;20226;-92
2023/09/20 13:12:51;;;;;;;5.45;2.55;;;25.20;92.90;;;;;;5057930;28;20265;-92
2023/09/20 13:15:19;;;;;;;4.82;2.70;;;25.10;92.60;;;;;;5056924;28;20591;-93
2023/09/20 13:17:48;;;;;;;3.70;2.40;;;25.00;92.80;;;;;;5052619;28;20719;-93
2023/09/20 13:20:18;;;;;;;4.47;2.40;;;24.80;92.80;;;;;;5052036;28;20236;-92
2023/09/20 13:22:47;;;;;;;5.25;2.15;;;24.60;93.00;;;;;;5048421;28;20239;-92
2023/09/20 13:25:18;;;;;;;5.63;2.67;;;24.40;93.30;;;;;;5047566;28;20215;-92
2023/09/20 13:27:46;;;;;;;4.68;2.10;;;24.30;93.40;;;;;;5068061;28;20721;-92
2023/09/20 13:30:17;;;;;;;4.25;2.10;;;24.10;93.90;;;;;;5084353;23;20246;-80
2023/09/20 13:32:46;;;;;;;4.90;2.33;;;24.00;94.10;;;;;;5061005;28;20219;-80
2023/09/20 13:35:15;;;;;;;5.82;2.70;;;23.80;94.30;;;;;;5039597;28;20219;-80
2023/09/20 13:37:45;;;;;;;3.53;2.00;;;23.70;94.60;;;;;;5060462;28;20219;-80
2023/09/20 13:40:14;;;;;;;4.82;2.10;;;23.70;94.90;;;;;;5058662;28;20220;-80
2023/09/20 13:42:42;;;;;;;3.47;2.20;;;23.60;94.90;;;;;;5089023;23;20327;-82
2023/09/20 13:45:10;;;;;;;4.30;2.13;;;23.60;95.10;;;;;;5100430;27;20702;-82
2023/09/20 13:47:39;;;;;;;5.18;2.53;;;23.60;95.30;;;;;;5099971;28;20227;-81
2023/09/20 13:50:08;;;;;;;3.70;2.08;;;23.70;95.40;;;;;;5082434;28;20303;-82
2023/09/20 13:52:35;;;;;;;4.97;2.13;;;23.80;95.50;;;;;;5081804;28;20599;-82
2023/09/20 13:55:05;;;;;;;6.05;2.30;;;23.80;95.30;;;;;;5101569;27;20650;-81
2023/09/20 13:57:33;;;;;;;2.78;2.03;;;23.90;95.40;;;;;;5096614;27;20304;-81